Time;durP1;ratioP1;P1;durP2;ratioP2;P2;SDS_P1;SDS_P2;PMS_P1;PMS_P2;Temp;Humidity;BMP_temperature;BMP_pressure;BME280_temperature;BME280_humidity;BME280_pressure;Samples;Min_cycle;Max_cycle;Signal;HPM_P1;HPM_P2
2021/01/21 00:00:07;;;;;;;4.03;1.90;;;6.10;99.90;;;;;;5056092;28;20071;-76
2021/01/21 00:02:37;;;;;;;10.98;2.58;;;6.10;99.90;;;;;;5077353;28;20332;-76
2021/01/21 00:05:05;;;;;;;3.67;1.95;;;6.00;99.90;;;;;;5039489;28;20039;-76
2021/01/21 00:07:30;;;;;;;3.42;1.95;;;6.00;99.90;;;;;;5059536;28;20032;-76
2021/01/21 00:09:58;;;;;;;4.63;2.08;;;6.00;99.90;;;;;;5060149;28;20030;-75
2021/01/21 00:12:23;;;;;;;4.63;1.92;;;6.00;99.90;;;;;;5077906;28;20036;-77
2021/01/21 00:14:49;;;;;;;5.45;2.13;;;6.00;99.90;;;;;;5059450;28;20138;-76
2021/01/21 00:17:15;;;;;;;4.53;2.17;;;6.00;99.90;;;;;;5057176;28;20647;-76
2021/01/21 00:19:40;;;;;;;3.65;1.80;;;6.00;99.90;;;;;;5060086;28;20189;-76
2021/01/21 00:22:06;;;;;;;4.38;1.70;;;6.10;99.90;;;;;;5075341;28;20028;-76
2021/01/21 00:24:31;;;;;;;4.43;2.20;;;6.10;99.90;;;;;;5077919;28;20031;-76
2021/01/21 00:26:57;;;;;;;7.15;1.95;;;6.00;99.90;;;;;;5078217;28;20038;-76
2021/01/21 00:29:23;;;;;;;3.72;1.95;;;6.00;99.90;;;;;;5050813;28;20040;-76
2021/01/21 00:31:48;;;;;;;6.30;1.90;;;6.10;99.90;;;;;;5050896;28;20082;-76
2021/01/21 00:34:14;;;;;;;8.48;2.47;;;6.20;99.90;;;;;;5071067;28;20124;-75
2021/01/21 00:36:40;;;;;;;4.82;1.85;;;6.20;99.90;;;;;;5077430;28;20400;-75
2021/01/21 00:39:06;;;;;;;4.07;2.17;;;6.20;99.90;;;;;;5077067;28;20077;-75
2021/01/21 00:41:32;;;;;;;6.93;2.33;;;6.20;99.90;;;;;;5078034;28;20028;-75
2021/01/21 00:43:58;;;;;;;6.78;2.25;;;6.20;99.90;;;;;;5071896;28;20029;-75
2021/01/21 00:46:23;;;;;;;3.45;1.70;;;6.30;99.90;;;;;;5075123;28;20032;-75
2021/01/21 00:48:49;;;;;;;3.17;1.63;;;6.30;99.90;;;;;;5059461;28;20559;-75
2021/01/21 00:51:15;;;;;;;4.57;2.08;;;6.30;99.90;;;;;;5042830;28;20109;-76
2021/01/21 00:53:40;;;;;;;5.28;2.08;;;6.40;99.90;;;;;;5077404;28;20035;-75
2021/01/21 00:56:06;;;;;;;5.63;1.90;;;6.50;99.90;;;;;;5058727;28;20589;-75
2021/01/21 00:58:32;;;;;;;3.53;1.65;;;6.60;99.90;;;;;;5076996;28;20058;-76
2021/01/21 01:01:01;;;;;;;4.88;1.50;;;6.60;99.90;;;;;;5058730;28;20060;-75
2021/01/21 01:03:28;;;;;;;2.90;1.77;;;6.70;99.90;;;;;;5057338;28;20035;-78
2021/01/21 01:05:54;;;;;;;3.75;1.73;;;6.70;99.90;;;;;;5054189;28;20028;-75
2021/01/21 01:08:20;;;;;;;2.85;1.70;;;6.60;99.90;;;;;;5043392;28;20518;-75
2021/01/21 01:10:47;;;;;;;4.63;1.80;;;6.60;99.90;;;;;;5077263;28;20031;-75
2021/01/21 01:13:24;;;;;;;3.88;1.80;;;6.80;99.90;;;;;;5059392;28;20030;-75
2021/01/21 01:15:52;;;;;;;7.68;2.03;;;6.80;99.90;;;;;;5058722;28;20035;-75
2021/01/21 01:18:22;;;;;;;2.20;1.60;;;6.80;99.90;;;;;;5043413;28;20043;-75
2021/01/21 01:20:50;;;;;;;3.00;1.75;;;6.90;99.90;;;;;;5077501;28;20028;-75
2021/01/21 01:23:20;;;;;;;1.77;1.30;;;7.00;99.90;;;;;;5072077;28;20051;-75
2021/01/21 01:25:45;;;;;;;4.70;2.08;;;6.90;99.90;;;;;;5054844;28;20135;-75
2021/01/21 01:28:12;;;;;;;3.00;1.60;;;6.90;99.90;;;;;;5042111;28;20115;-77
2021/01/21 01:30:37;;;;;;;2.35;1.40;;;6.90;99.90;;;;;;5058926;28;20494;-74
2021/01/21 01:33:03;;;;;;;5.63;1.60;;;6.90;99.90;;;;;;5058503;28;20113;-75
2021/01/21 01:35:29;;;;;;;6.15;1.50;;;6.90;99.90;;;;;;5058168;28;20035;-75
2021/01/21 01:37:55;;;;;;;2.50;1.50;;;6.80;99.90;;;;;;5058644;28;20325;-75
2021/01/21 01:40:21;;;;;;;2.70;1.50;;;6.70;99.90;;;;;;5058822;28;20786;-74
2021/01/21 01:42:51;;;;;;;3.67;1.70;;;6.70;99.90;;;;;;5058498;28;20064;-75
2021/01/21 01:45:20;;;;;;;3.28;1.80;;;6.80;99.90;;;;;;5056530;28;20040;-75
2021/01/21 01:47:49;;;;;;;5.07;1.83;;;6.80;99.90;;;;;;5041690;28;20754;-75
2021/01/21 01:50:30;;;;;;;2.88;1.50;;;6.70;99.90;;;;;;5056509;28;20499;-75
2021/01/21 01:52:56;;;;;;;3.85;1.67;;;6.70;99.90;;;;;;5054506;28;20040;-75
2021/01/21 01:55:23;;;;;;;2.17;1.40;;;6.70;99.90;;;;;;5068428;28;20069;-75
2021/01/21 01:57:59;;;;;;;2.05;1.42;;;6.70;99.90;;;;;;5057836;28;20119;-75
2021/01/21 02:00:38;;;;;;;2.17;1.58;;;6.60;99.90;;;;;;5043174;28;20059;-75
2021/01/21 02:03:04;;;;;;;4.20;1.75;;;6.70;99.90;;;;;;5058252;28;20024;-75
2021/01/21 02:05:35;;;;;;;2.17;1.33;;;6.60;99.90;;;;;;5056867;28;20024;-75
2021/01/21 02:08:02;;;;;;;6.30;1.55;;;6.70;99.90;;;;;;5058551;28;20690;-75
2021/01/21 02:10:30;;;;;;;2.60;1.63;;;6.70;99.90;;;;;;5058176;28;20729;-75
2021/01/21 02:13:45;;;;;;;3.53;1.55;;;6.70;99.90;;;;;;5058385;28;20032;-76
2021/01/21 02:16:36;;;;;;;3.42;1.70;;;6.70;99.90;;;;;;5047441;28;20046;-75
2021/01/21 02:19:07;;;;;;;2.30;1.50;;;6.60;99.90;;;;;;5073251;28;20837;-75
2021/01/21 02:22:11;;;;;;;2.30;1.38;;;6.60;99.90;;;;;;5058201;28;20656;-75
2021/01/21 02:25:09;;;;;;;2.58;1.50;;;6.50;99.90;;;;;;5055753;28;20111;-75
2021/01/21 02:27:46;;;;;;;2.72;1.40;;;6.40;99.90;;;;;;5057902;28;20132;-75
2021/01/21 02:30:38;;;;;;;3.65;1.77;;;6.40;99.90;;;;;;5058118;28;20409;-75
2021/01/21 02:33:51;;;;;;;2.70;1.35;;;6.40;99.90;;;;;;5044305;28;20036;-73
2021/01/21 02:36:25;;;;;;;2.65;1.35;;;6.40;99.90;;;;;;5051454;28;20117;-75
2021/01/21 02:38:54;;;;;;;3.03;1.50;;;6.40;99.90;;;;;;5057842;28;20038;-75
2021/01/21 02:41:22;;;;;;;3.45;1.58;;;6.40;99.90;;;;;;5057626;28;20151;-76
2021/01/21 02:43:52;;;;;;;1.88;1.25;;;6.30;99.90;;;;;;5075855;28;20027;-75
2021/01/21 02:46:21;;;;;;;2.03;1.40;;;6.40;99.90;;;;;;5060540;28;20028;-75
2021/01/21 02:48:50;;;;;;;2.33;1.60;;;6.30;99.90;;;;;;5060538;28;20028;-75
2021/01/21 02:51:57;;;;;;;2.90;1.70;;;6.30;99.90;;;;;;5045177;28;20024;-75
2021/01/21 02:54:41;;;;;;;2.92;1.50;;;6.40;99.90;;;;;;5012024;28;20088;-75
2021/01/21 02:57:15;;;;;;;3.40;1.40;;;6.30;99.90;;;;;;5078239;28;20414;-74
2021/01/21 02:59:42;;;;;;;3.35;1.50;;;6.40;99.90;;;;;;5061420;28;20032;-74
2021/01/21 03:02:17;;;;;;;3.83;1.52;;;6.50;99.90;;;;;;5061541;28;20111;-75
2021/01/21 03:04:45;;;;;;;4.22;1.50;;;6.50;99.90;;;;;;5074425;28;20115;-74
2021/01/21 03:07:14;;;;;;;1.90;1.10;;;6.50;99.90;;;;;;5043799;28;20036;-74
2021/01/21 03:09:45;;;;;;;2.17;1.30;;;6.60;99.90;;;;;;5079359;28;20050;-75
2021/01/21 03:12:25;;;;;;;3.05;1.40;;;6.60;99.90;;;;;;5079339;28;20870;-74
2021/01/21 03:14:56;;;;;;;4.97;1.60;;;6.80;99.90;;;;;;5074417;28;20377;-74
2021/01/21 03:17:24;;;;;;;2.58;1.50;;;6.80;99.90;;;;;;5078829;28;20140;-75
2021/01/21 03:20:01;;;;;;;3.60;1.50;;;6.90;99.90;;;;;;5060968;28;20036;-74
2021/01/21 03:22:28;;;;;;;2.25;1.30;;;6.90;99.90;;;;;;5044352;28;20024;-75
2021/01/21 03:24:54;;;;;;;3.30;1.40;;;6.90;99.90;;;;;;5058899;28;20638;-75
2021/01/21 03:27:30;;;;;;;2.30;1.50;;;6.90;99.90;;;;;;5042742;28;20032;-74
2021/01/21 03:30:05;;;;;;;3.40;1.58;;;6.90;99.90;;;;;;5045135;28;20043;-75
2021/01/21 03:32:32;;;;;;;2.17;1.20;;;6.80;99.90;;;;;;5060205;28;20043;-75
2021/01/21 03:34:59;;;;;;;3.45;1.50;;;6.80;99.90;;;;;;5059389;28;20058;-74
2021/01/21 03:37:25;;;;;;;1.67;1.15;;;6.90;99.90;;;;;;5059203;28;20057;-75
2021/01/21 03:39:53;;;;;;;4.75;1.42;;;6.90;99.90;;;;;;5059771;28;20139;-71
2021/01/21 03:42:36;;;;;;;2.13;1.40;;;6.90;99.90;;;;;;5059451;28;20028;-71
2021/01/21 03:45:14;;;;;;;5.53;1.58;;;6.90;99.90;;;;;;5059760;28;20865;-72
2021/01/21 03:47:40;;;;;;;2.88;1.30;;;6.90;99.90;;;;;;5059569;28;20036;-72
2021/01/21 03:50:06;;;;;;;2.47;1.20;;;7.00;99.90;;;;;;5078318;28;20043;-71
2021/01/21 03:52:35;;;;;;;3.40;1.50;;;7.00;99.90;;;;;;5060174;28;20802;-71
2021/01/21 03:55:09;;;;;;;1.80;1.20;;;7.00;99.90;;;;;;5060152;28;20055;-72
2021/01/21 03:57:35;;;;;;;3.38;1.38;;;7.00;99.90;;;;;;5059712;28;20101;-71
2021/01/21 04:00:16;;;;;;;2.38;1.23;;;7.00;99.90;;;;;;5059909;28;20036;-72
2021/01/21 04:02:46;;;;;;;6.78;1.48;;;7.10;99.90;;;;;;5059360;28;20689;-72
2021/01/21 04:05:20;;;;;;;2.20;1.20;;;7.10;99.80;;;;;;5043397;28;20032;-71
2021/01/21 04:07:46;;;;;;;2.17;1.20;;;7.20;99.90;;;;;;5059974;28;20820;-72
2021/01/21 04:10:12;;;;;;;2.15;1.30;;;7.10;99.90;;;;;;5059533;28;20480;-71
2021/01/21 04:12:49;;;;;;;2.70;1.40;;;7.20;99.70;;;;;;5045055;28;20043;-72
2021/01/21 04:15:15;;;;;;;1.95;1.42;;;7.20;99.80;;;;;;5058714;28;20408;-71
2021/01/21 04:17:43;;;;;;;3.95;1.50;;;7.20;99.70;;;;;;5059082;28;20027;-72
2021/01/21 04:20:10;;;;;;;2.45;1.27;;;7.30;99.50;;;;;;5059734;28;20571;-72
2021/01/21 04:22:36;;;;;;;2.90;1.25;;;7.20;99.50;;;;;;5077796;28;20112;-71
2021/01/21 04:25:02;;;;;;;3.08;1.30;;;7.20;99.90;;;;;;5058260;28;20641;-72
2021/01/21 04:27:36;;;;;;;1.80;1.30;;;7.20;99.90;;;;;;5058742;28;20686;-72
2021/01/21 04:30:03;;;;;;;3.13;1.48;;;7.10;99.70;;;;;;5077990;28;20368;-71
2021/01/21 04:32:31;;;;;;;3.42;1.25;;;7.20;99.70;;;;;;5059101;28;20040;-72
2021/01/21 04:34:57;;;;;;;3.78;1.60;;;7.10;99.90;;;;;;5041798;28;20028;-72
2021/01/21 04:37:24;;;;;;;2.97;1.38;;;7.20;99.50;;;;;;5058371;28;20055;-72
2021/01/21 04:40:10;;;;;;;7.72;1.52;;;7.30;99.40;;;;;;5076755;28;20044;-72
2021/01/21 04:42:38;;;;;;;2.35;1.40;;;7.20;99.50;;;;;;5058638;28;20086;-71
2021/01/21 04:45:09;;;;;;;2.85;1.38;;;7.40;99.20;;;;;;5057995;28;20036;-71
2021/01/21 04:47:41;;;;;;;4.20;1.33;;;7.30;99.50;;;;;;5058329;28;20039;-72
2021/01/21 04:50:34;;;;;;;7.85;1.30;;;7.30;99.60;;;;;;5059130;28;20036;-72
2021/01/21 04:53:11;;;;;;;3.55;1.38;;;7.10;99.90;;;;;;5058688;28;20455;-72
2021/01/21 04:55:57;;;;;;;3.72;1.20;;;7.20;99.90;;;;;;5056140;28;20118;-72
2021/01/21 04:58:51;;;;;;;1.92;1.20;;;7.30;99.40;;;;;;5026879;28;20044;-72
2021/01/21 05:01:34;;;;;;;7.13;1.52;;;7.20;99.70;;;;;;5066344;28;20039;-71
2021/01/21 05:04:01;;;;;;;2.20;1.30;;;7.20;99.90;;;;;;5069905;28;20416;-72
2021/01/21 05:06:53;;;;;;;2.63;1.40;;;7.30;99.70;;;;;;5041572;28;20545;-71
2021/01/21 05:09:22;;;;;;;2.83;1.30;;;7.20;99.90;;;;;;5062247;28;20032;-71
2021/01/21 05:11:51;;;;;;;3.15;1.25;;;7.20;99.90;;;;;;5043940;28;20067;-71
2021/01/21 05:14:26;;;;;;;5.18;1.50;;;7.20;99.80;;;;;;5069427;28;20106;-72
2021/01/21 05:17:05;;;;;;;2.40;1.20;;;7.20;99.90;;;;;;5065027;28;20043;-71
2021/01/21 05:19:47;;;;;;;2.33;1.50;;;7.10;99.90;;;;;;5050362;28;20101;-71
2021/01/21 05:22:34;;;;;;;3.58;1.60;;;7.00;99.90;;;;;;5069860;28;20074;-71
2021/01/21 05:25:18;;;;;;;2.05;1.20;;;7.00;99.90;;;;;;5066794;28;20066;-71
2021/01/21 05:27:54;;;;;;;2.53;1.40;;;7.00;99.90;;;;;;5052814;28;20419;-72
2021/01/21 05:30:40;;;;;;;2.08;1.40;;;7.10;99.90;;;;;;5069584;28;20142;-73
2021/01/21 05:33:06;;;;;;;2.95;1.33;;;7.10;99.90;;;;;;5064299;28;20446;-73
2021/01/21 05:35:47;;;;;;;3.83;1.75;;;7.10;99.90;;;;;;5044699;28;20728;-72
2021/01/21 05:38:13;;;;;;;3.05;1.38;;;7.10;99.90;;;;;;5062580;28;20810;-72
2021/01/21 05:41:15;;;;;;;2.97;1.02;;;7.10;99.90;;;;;;5065858;28;20054;-73
2021/01/21 05:44:07;;;;;;;3.05;1.40;;;7.10;99.90;;;;;;5073297;28;20028;-72
2021/01/21 05:46:52;;;;;;;2.55;1.33;;;7.10;99.90;;;;;;5076691;28;20036;-72
2021/01/21 05:49:19;;;;;;;7.13;1.63;;;7.10;99.90;;;;;;5059005;28;20032;-73
2021/01/21 05:51:46;;;;;;;2.92;1.30;;;7.20;99.90;;;;;;5077097;28;20774;-73
2021/01/21 05:54:19;;;;;;;3.42;1.13;;;7.30;99.50;;;;;;5058153;28;20020;-73
2021/01/21 05:56:58;;;;;;;3.15;1.50;;;7.30;99.10;;;;;;5058216;28;20036;-72
2021/01/21 05:59:25;;;;;;;2.55;1.38;;;7.40;98.80;;;;;;5058280;28;20036;-72
2021/01/21 06:02:01;;;;;;;1.58;1.17;;;7.40;98.70;;;;;;5042452;28;20047;-72
2021/01/21 06:04:35;;;;;;;2.03;1.30;;;7.50;98.50;;;;;;5057642;28;20032;-73
2021/01/21 06:07:01;;;;;;;2.70;1.30;;;7.60;97.80;;;;;;5076676;28;20052;-73
2021/01/21 06:09:28;;;;;;;3.63;1.38;;;7.60;97.60;;;;;;5068220;28;20146;-73
2021/01/21 06:12:01;;;;;;;2.30;1.38;;;7.70;97.50;;;;;;5066152;28;20488;-73
2021/01/21 06:14:27;;;;;;;2.05;1.10;;;7.60;97.20;;;;;;5064052;28;20084;-72
2021/01/21 06:16:54;;;;;;;3.50;1.40;;;7.80;96.50;;;;;;5062661;28;20035;-73
2021/01/21 06:19:20;;;;;;;3.38;1.35;;;7.90;96.00;;;;;;5073639;28;20039;-73
2021/01/21 06:22:04;;;;;;;3.88;1.42;;;7.90;96.10;;;;;;5092154;28;20032;-72
2021/01/21 06:24:51;;;;;;;4.10;1.40;;;7.80;96.40;;;;;;5100875;28;20046;-73
2021/01/21 06:27:18;;;;;;;2.97;1.30;;;7.90;95.90;;;;;;5054359;28;20594;-72
2021/01/21 06:29:47;;;;;;;2.22;1.40;;;8.00;95.10;;;;;;5086319;28;20024;-73
2021/01/21 06:32:16;;;;;;;2.47;1.20;;;8.10;94.60;;;;;;5087788;28;20046;-73
2021/01/21 06:34:43;;;;;;;3.30;1.35;;;8.10;94.70;;;;;;5100669;28;20035;-73
2021/01/21 06:37:15;;;;;;;2.78;1.30;;;8.10;94.20;;;;;;5099823;28;20353;-73
2021/01/21 06:39:47;;;;;;;4.53;1.35;;;8.20;94.10;;;;;;5095713;28;20066;-73
2021/01/21 06:42:17;;;;;;;3.22;1.33;;;8.30;93.90;;;;;;5085702;28;20492;-73
2021/01/21 06:44:43;;;;;;;4.30;1.45;;;8.30;93.60;;;;;;5071123;28;20686;-73
2021/01/21 06:47:09;;;;;;;5.30;1.60;;;8.20;94.00;;;;;;5088449;28;20039;-72
2021/01/21 06:49:37;;;;;;;3.40;1.50;;;8.20;94.10;;;;;;5091249;28;20058;-73
2021/01/21 06:52:05;;;;;;;2.40;1.15;;;8.10;94.10;;;;;;5069030;28;20103;-72
2021/01/21 06:54:31;;;;;;;2.63;1.20;;;8.00;94.50;;;;;;5078056;28;20118;-73
2021/01/21 06:56:57;;;;;;;2.38;1.23;;;7.90;95.20;;;;;;5074950;28;20084;-72
2021/01/21 06:59:51;;;;;;;2.47;1.35;;;8.00;94.60;;;;;;5068059;28;20133;-72
2021/01/21 07:02:47;;;;;;;9.82;1.35;;;7.90;95.30;;;;;;5078010;28;20032;-72
2021/01/21 07:05:14;;;;;;;2.80;1.40;;;8.00;94.80;;;;;;5088463;28;20080;-72
2021/01/21 07:08:01;;;;;;;2.00;1.20;;;8.00;95.00;;;;;;5070215;28;20035;-72
2021/01/21 07:10:28;;;;;;;2.90;1.40;;;8.00;94.80;;;;;;5071291;28;20057;-73
2021/01/21 07:12:55;;;;;;;3.28;1.30;;;8.00;95.00;;;;;;5064339;28;20039;-72
2021/01/21 07:15:43;;;;;;;3.78;1.30;;;8.10;94.30;;;;;;5092878;28;20791;-73
2021/01/21 07:18:14;;;;;;;2.75;1.42;;;8.20;94.10;;;;;;5089324;28;20123;-74
2021/01/21 07:21:09;;;;;;;4.35;1.40;;;8.10;93.80;;;;;;5088719;28;20540;-73
2021/01/21 07:23:46;;;;;;;3.72;1.30;;;8.10;94.60;;;;;;5064947;28;20038;-74
2021/01/21 07:26:34;;;;;;;4.80;1.25;;;8.20;93.80;;;;;;5089293;28;20028;-73
2021/01/21 07:29:14;;;;;;;2.70;1.40;;;8.10;94.50;;;;;;5074636;28;20831;-72
2021/01/21 07:31:52;;;;;;;1.88;1.17;;;8.10;94.70;;;;;;5087331;28;20043;-72
2021/01/21 07:34:28;;;;;;;3.75;1.20;;;8.00;94.90;;;;;;5087424;28;20154;-73
2021/01/21 07:37:25;;;;;;;2.83;1.35;;;8.00;94.80;;;;;;5095421;28;20058;-73
2021/01/21 07:39:59;;;;;;;3.60;1.30;;;8.00;95.50;;;;;;5058766;28;20044;-73
2021/01/21 07:42:37;;;;;;;2.10;1.27;;;7.90;95.60;;;;;;5088262;28;20035;-73
2021/01/21 07:45:06;;;;;;;3.35;1.20;;;7.90;96.00;;;;;;5092052;28;20028;-73
2021/01/21 07:47:37;;;;;;;2.95;1.48;;;7.90;95.80;;;;;;5077634;28;20091;-70
2021/01/21 07:50:32;;;;;;;3.25;1.50;;;7.80;96.30;;;;;;5096435;28;20043;-71
2021/01/21 07:53:06;;;;;;;4.50;1.23;;;7.90;96.10;;;;;;5089171;28;20050;-72
2021/01/21 07:55:36;;;;;;;2.10;1.23;;;7.80;96.70;;;;;;5082362;28;20046;-73
2021/01/21 07:58:20;;;;;;;4.80;1.55;;;7.80;96.70;;;;;;5093202;28;20130;-73
2021/01/21 08:00:57;;;;;;;3.13;1.20;;;7.90;96.60;;;;;;5087220;28;20058;-71
2021/01/21 08:03:28;;;;;;;2.65;1.58;;;7.80;97.00;;;;;;5098189;28;20032;-72
2021/01/21 08:06:04;;;;;;;3.22;1.58;;;7.90;97.20;;;;;;5089324;28;20551;-71
2021/01/21 08:08:29;;;;;;;2.92;1.45;;;8.00;97.10;;;;;;5087116;28;20649;-70
2021/01/21 08:11:03;;;;;;;3.15;1.38;;;8.30;96.70;;;;;;5098946;28;20026;-72
2021/01/21 08:13:29;;;;;;;2.58;1.42;;;8.40;95.80;;;;;;5090686;28;20036;-70
2021/01/21 08:15:55;;;;;;;2.03;1.10;;;8.60;95.40;;;;;;5093036;28;20032;-70
2021/01/21 08:18:21;;;;;;;3.20;1.38;;;8.70;95.20;;;;;;5074504;28;20040;-72
2021/01/21 08:20:47;;;;;;;3.13;1.45;;;8.70;95.30;;;;;;5089386;28;20032;-71
2021/01/21 08:23:13;;;;;;;3.17;1.30;;;8.90;94.40;;;;;;5078121;28;20039;-73
2021/01/21 08:25:48;;;;;;;2.55;1.35;;;9.10;93.70;;;;;;5098086;28;20674;-72
2021/01/21 08:28:18;;;;;;;2.42;1.30;;;9.20;93.90;;;;;;5076964;28;20907;-72
2021/01/21 08:30:46;;;;;;;2.83;1.40;;;9.40;92.80;;;;;;5086320;28;20031;-72
2021/01/21 08:33:25;;;;;;;4.03;1.30;;;9.60;91.80;;;;;;5097431;28;20389;-73
2021/01/21 08:35:52;;;;;;;5.00;1.25;;;9.60;91.50;;;;;;5094407;28;20394;-73
2021/01/21 08:38:27;;;;;;;2.60;1.00;;;9.60;92.00;;;;;;5079378;28;20046;-72
2021/01/21 08:40:54;;;;;;;2.03;1.25;;;9.50;92.50;;;;;;5075166;28;20028;-73
2021/01/21 08:43:21;;;;;;;2.72;1.30;;;9.40;92.90;;;;;;5087760;28;20036;-73
2021/01/21 08:45:48;;;;;;;6.07;1.38;;;9.50;92.60;;;;;;5093103;28;20027;-73
2021/01/21 08:48:25;;;;;;;5.55;1.63;;;9.50;93.00;;;;;;5053679;28;20085;-71
2021/01/21 08:50:51;;;;;;;1.70;1.15;;;9.50;92.70;;;;;;5069612;28;20053;-73
2021/01/21 08:53:21;;;;;;;1.55;0.90;;;9.60;92.80;;;;;;5096943;28;20031;-72
2021/01/21 08:55:49;;;;;;;4.43;1.20;;;9.70;92.00;;;;;;5081827;28;20488;-72
2021/01/21 08:58:17;;;;;;;5.20;1.10;;;9.80;91.80;;;;;;5070179;28;20036;-73
2021/01/21 09:01:05;;;;;;;3.03;1.52;;;10.00;91.20;;;;;;5060362;28;20069;-73
2021/01/21 09:03:38;;;;;;;2.15;1.17;;;10.10;90.40;;;;;;5098413;28;20535;-73
2021/01/21 09:06:08;;;;;;;3.22;1.38;;;10.30;90.30;;;;;;5078923;28;20174;-72
2021/01/21 09:08:52;;;;;;;6.93;3.10;;;10.50;87.80;;;;;;5095590;28;20039;-73
2021/01/21 09:11:38;;;;;;;4.22;1.20;;;10.50;87.30;;;;;;5091587;28;20058;-73
2021/01/21 09:14:14;;;;;;;4.57;1.30;;;10.80;85.80;;;;;;5091238;28;20639;-73
2021/01/21 09:16:47;;;;;;;1.73;1.05;;;11.10;81.80;;;;;;5075634;28;20820;-72
2021/01/21 09:19:37;;;;;;;4.82;1.40;;;11.30;78.80;;;;;;5067779;28;20692;-72
2021/01/21 09:22:05;;;;;;;4.18;1.48;;;11.50;77.70;;;;;;5071908;28;20341;-74
2021/01/21 09:24:54;;;;;;;2.40;1.00;;;11.70;75.70;;;;;;5091271;28;20035;-72
2021/01/21 09:27:22;;;;;;;2.90;1.23;;;11.80;73.60;;;;;;5072723;28;20040;-79
2021/01/21 09:29:49;;;;;;;2.88;1.00;;;11.90;73.60;;;;;;5058224;28;20034;-80
2021/01/21 09:32:19;;;;;;;2.05;0.93;;;11.90;74.20;;;;;;5072278;28;20086;-79
2021/01/21 09:35:06;;;;;;;2.53;1.30;;;11.90;72.80;;;;;;5082139;28;20028;-72
2021/01/21 09:37:46;;;;;;;4.82;1.10;;;11.90;73.10;;;;;;5068210;28;20036;-80
2021/01/21 09:40:16;;;;;;;1.80;1.08;;;11.90;73.00;;;;;;5087799;28;20798;-82
2021/01/21 09:42:42;;;;;;;4.28;1.30;;;11.90;74.80;;;;;;5085787;28;20031;-79
2021/01/21 09:45:09;;;;;;;5.40;1.33;;;11.90;73.80;;;;;;5084131;28;20035;-75
2021/01/21 09:47:35;;;;;;;2.50;1.27;;;11.90;73.20;;;;;;5054760;28;20574;-76
2021/01/21 09:50:02;;;;;;;2.97;0.95;;;12.00;72.70;;;;;;5091716;28;20081;-76
2021/01/21 09:52:28;;;;;;;5.57;1.50;;;12.10;72.50;;;;;;5071022;28;20034;-76
2021/01/21 09:54:54;;;;;;;4.20;1.10;;;12.10;72.00;;;;;;5067425;28;20411;-75
2021/01/21 09:57:19;;;;;;;6.60;1.20;;;12.10;72.50;;;;;;5079117;28;20031;-75
2021/01/21 09:59:45;;;;;;;1.88;1.00;;;12.10;72.40;;;;;;5073933;28;21078;-75
2021/01/21 10:02:11;;;;;;;3.35;1.10;;;12.40;71.60;;;;;;5092046;28;20042;-75
2021/01/21 10:04:38;;;;;;;1.80;1.00;;;12.60;68.60;;;;;;5077531;28;20034;-76
2021/01/21 10:07:05;;;;;;;2.33;1.27;;;12.60;68.40;;;;;;5093094;28;20043;-79
2021/01/21 10:09:31;;;;;;;2.97;1.00;;;12.80;68.60;;;;;;5089565;28;20028;-78
2021/01/21 10:11:57;;;;;;;2.67;1.00;;;12.90;67.80;;;;;;5069300;28;20028;-80
2021/01/21 10:14:23;;;;;;;1.70;1.10;;;12.80;65.90;;;;;;5096330;28;20028;-77
2021/01/21 10:16:49;;;;;;;2.00;1.00;;;12.80;67.40;;;;;;5101999;28;20042;-80
2021/01/21 10:19:14;;;;;;;2.28;1.10;;;12.90;67.70;;;;;;5078737;28;20028;-76
2021/01/21 10:21:40;;;;;;;1.20;0.90;;;12.90;66.80;;;;;;5100402;28;20023;-77
2021/01/21 10:24:06;;;;;;;4.07;1.10;;;12.90;67.40;;;;;;5077001;28;20036;-77
2021/01/21 10:26:32;;;;;;;3.25;0.77;;;13.00;66.90;;;;;;5097042;28;20069;-77
2021/01/21 10:28:57;;;;;;;3.58;1.30;;;13.10;66.00;;;;;;5096451;28;20124;-76
2021/01/21 10:31:23;;;;;;;2.95;1.15;;;13.10;67.20;;;;;;5077264;28;20046;-76
2021/01/21 10:33:49;;;;;;;4.20;1.35;;;13.00;66.60;;;;;;5084532;28;20028;-76
2021/01/21 10:36:14;;;;;;;3.53;1.10;;;13.00;66.20;;;;;;5072214;28;20492;-73
2021/01/21 10:38:40;;;;;;;1.85;1.30;;;13.00;67.70;;;;;;5092331;28;20044;-76
2021/01/21 10:41:07;;;;;;;3.53;0.98;;;13.00;66.70;;;;;;5057684;28;20025;-79
2021/01/21 10:43:33;;;;;;;3.13;1.40;;;13.20;68.20;;;;;;5057422;28;20042;-78
2021/01/21 10:45:59;;;;;;;4.03;1.17;;;13.20;67.00;;;;;;5054367;28;20036;-79
2021/01/21 10:48:25;;;;;;;3.67;1.10;;;13.30;68.20;;;;;;5092480;28;20050;-79
2021/01/21 10:50:51;;;;;;;3.45;1.10;;;13.40;65.80;;;;;;5092073;28;20050;-78
2021/01/21 10:53:16;;;;;;;4.78;1.00;;;13.40;66.70;;;;;;5093688;28;20047;-81
2021/01/21 10:55:42;;;;;;;1.80;1.10;;;13.50;67.60;;;;;;5074037;28;20028;-79
2021/01/21 10:58:13;;;;;;;1.90;0.80;;;13.60;67.30;;;;;;5073818;28;20069;-78
2021/01/21 11:00:41;;;;;;;2.35;1.05;;;13.60;66.40;;;;;;5083609;28;20036;-81
2021/01/21 11:03:07;;;;;;;4.03;1.10;;;13.50;66.40;;;;;;5050343;28;20035;-77
2021/01/21 11:05:33;;;;;;;5.63;1.38;;;13.50;67.30;;;;;;5080008;28;20031;-78
2021/01/21 11:07:58;;;;;;;1.58;0.90;;;13.50;67.10;;;;;;5077560;28;20032;-78
2021/01/21 11:10:24;;;;;;;2.28;1.10;;;13.60;67.10;;;;;;5067857;28;20031;-73
2021/01/21 11:12:50;;;;;;;9.57;5.07;;;13.50;66.60;;;;;;5072579;28;20051;-78
2021/01/21 11:15:17;;;;;;;5.03;1.30;;;13.30;67.60;;;;;;5094633;28;20073;-74
2021/01/21 11:17:47;;;;;;;2.08;1.10;;;13.30;67.80;;;;;;5079299;28;20066;-76
2021/01/21 11:20:14;;;;;;;1.90;1.05;;;13.30;69.60;;;;;;5089411;28;20032;-75
2021/01/21 11:22:40;;;;;;;1.92;0.80;;;13.20;69.10;;;;;;5062720;28;20035;-77
2021/01/21 11:25:08;;;;;;;1.88;0.90;;;13.10;70.50;;;;;;5092409;28;20028;-76
2021/01/21 11:27:34;;;;;;;2.05;1.10;;;13.00;70.40;;;;;;5073714;28;20043;-76
2021/01/21 11:30:02;;;;;;;1.75;0.98;;;13.00;70.30;;;;;;5074056;28;20032;-76
2021/01/21 11:32:28;;;;;;;2.05;1.10;;;13.00;71.60;;;;;;5098178;28;20040;-75
2021/01/21 11:34:54;;;;;;;1.55;1.00;;;13.00;70.90;;;;;;5079396;28;20046;-76
2021/01/21 11:37:19;;;;;;;1.85;1.20;;;13.00;70.70;;;;;;5085865;28;20032;-77
2021/01/21 11:39:45;;;;;;;4.43;1.00;;;13.00;71.20;;;;;;5088821;28;20028;-76
2021/01/21 11:42:11;;;;;;;4.05;1.23;;;12.80;72.90;;;;;;5085874;28;20031;-76
2021/01/21 11:44:36;;;;;;;1.88;1.00;;;12.90;73.00;;;;;;5077523;28;20047;-79
2021/01/21 11:47:02;;;;;;;3.17;1.20;;;12.80;73.80;;;;;;5062367;28;20032;-82
2021/01/21 11:49:27;;;;;;;4.05;1.00;;;12.80;74.70;;;;;;5068147;28;20032;-76
2021/01/21 11:51:55;;;;;;;5.05;1.17;;;12.70;74.10;;;;;;5090380;28;20028;-77
2021/01/21 11:54:21;;;;;;;1.90;1.23;;;12.60;75.40;;;;;;5070909;28;20028;-77
2021/01/21 11:56:46;;;;;;;1.23;0.90;;;12.60;75.70;;;;;;5074123;28;20030;-77
2021/01/21 11:59:12;;;;;;;2.03;1.00;;;12.60;76.00;;;;;;5097847;28;20039;-76
2021/01/21 12:01:38;;;;;;;2.25;1.05;;;12.60;76.40;;;;;;5088921;28;20036;-77
2021/01/21 12:04:04;;;;;;;2.28;0.95;;;12.60;76.20;;;;;;5063112;28;20032;-76
2021/01/21 12:06:29;;;;;;;3.10;1.30;;;12.60;76.50;;;;;;5050574;28;20115;-79
2021/01/21 12:08:55;;;;;;;2.78;1.20;;;12.60;77.60;;;;;;5054898;28;20789;-78
2021/01/21 12:11:21;;;;;;;1.90;1.05;;;12.60;77.80;;;;;;5061805;28;20036;-77
2021/01/21 12:13:46;;;;;;;1.80;0.88;;;12.60;78.30;;;;;;5095219;28;20055;-76
2021/01/21 12:16:12;;;;;;;3.38;1.77;;;12.60;78.10;;;;;;5089563;28;20080;-83
2021/01/21 12:18:38;;;;;;;3.50;1.40;;;12.60;79.70;;;;;;5077925;28;20507;-79
2021/01/21 12:21:03;;;;;;;4.38;1.00;;;12.70;79.80;;;;;;5070317;28;20077;-79
2021/01/21 12:23:29;;;;;;;5.63;1.25;;;12.70;80.60;;;;;;5063838;28;20048;-81
2021/01/21 12:25:55;;;;;;;1.40;1.10;;;12.80;80.60;;;;;;5055996;28;20141;-80
2021/01/21 12:28:21;;;;;;;4.40;1.10;;;12.80;80.10;;;;;;5061991;28;20054;-81
2021/01/21 12:30:48;;;;;;;2.50;1.10;;;12.70;81.20;;;;;;5087627;28;20028;-80
2021/01/21 12:33:13;;;;;;;4.35;1.35;;;12.60;82.20;;;;;;5084621;28;20474;-78
2021/01/21 12:35:39;;;;;;;3.53;1.70;;;12.60;82.40;;;;;;5047709;28;20465;-75
2021/01/21 12:38:05;;;;;;;3.80;1.30;;;12.60;83.00;;;;;;5090159;28;20028;-81
2021/01/21 12:40:31;;;;;;;2.22;1.17;;;12.50;84.70;;;;;;5064881;28;20028;-79
2021/01/21 12:42:56;;;;;;;1.95;0.90;;;12.60;84.30;;;;;;5071490;28;20016;-75
2021/01/21 12:45:23;;;;;;;1.92;1.17;;;12.60;84.10;;;;;;5054636;28;20804;-80
2021/01/21 12:47:48;;;;;;;2.35;1.20;;;12.60;84.60;;;;;;5078997;28;20032;-79
2021/01/21 12:50:14;;;;;;;3.08;1.85;;;12.70;85.10;;;;;;5065821;28;20499;-78
2021/01/21 12:52:40;;;;;;;3.33;1.77;;;12.80;85.70;;;;;;5040326;28;20135;-78
2021/01/21 12:55:07;;;;;;;3.72;1.50;;;12.60;88.30;;;;;;4989210;28;20077;-78
2021/01/21 12:57:32;;;;;;;5.53;2.65;;;12.20;91.70;;;;;;4973937;28;20046;-77
2021/01/21 12:59:58;;;;;;;3.30;1.05;;;11.90;93.90;;;;;;5000064;28;20846;-77
2021/01/21 13:02:28;;;;;;;4.68;1.40;;;11.50;95.70;;;;;;4995577;28;20033;-78
2021/01/21 13:04:54;;;;;;;7.50;3.75;;;11.40;97.00;;;;;;4992476;28;20076;-82
2021/01/21 13:07:20;;;;;;;4.45;2.22;;;11.20;98.20;;;;;;5007481;28;20030;-79
2021/01/21 13:09:46;;;;;;;4.00;1.23;;;11.20;98.60;;;;;;5004087;28;20030;-77
2021/01/21 13:12:11;;;;;;;2.30;1.40;;;11.20;98.90;;;;;;5010748;28;20026;-77